<?xml version="1.0" encoding="UTF-8" standalone="no" ?>
<gpx xmlns="http://www.topografix.com/GPX/1/1" xmlns:xsi="http://www.w3.org/2001/XMLSchema-instance" xsi:schemaLocation="http://www.topografix.com/GPX/1/1 http://www.topografix.com/GPX/1/1/gpx.xsd" version="1.1" creator="VisuGPX - https://www.visugpx.com">
  <metadata>
    <name>Dans les champs</name>
    <desc><![CDATA[Promenade dans les champs et passage au bord du canal pour rafraîchir mes chiens.]]></desc>
  </metadata>
  <trk>
    <name><![CDATA[14 juil. 2016 11:05:22 AM]]></name>
    <trkseg>
      <trkpt lat="47.46677" lon="-1.58171">
        <ele>86</ele>
        <time>2016-07-14T09:05:29.000Z</time>
      </trkpt>
      <trkpt lat="47.46676" lon="-1.58186">
        <ele>83</ele>
        <time>2016-07-14T09:06:21.000Z</time>
      </trkpt>
      <trkpt lat="47.46683" lon="-1.58194">
        <ele>76</ele>
        <time>2016-07-14T09:06:31.000Z</time>
      </trkpt>
      <trkpt lat="47.46689" lon="-1.58206">
        <ele>73</ele>
        <time>2016-07-14T09:06:40.000Z</time>
      </trkpt>
      <trkpt lat="47.4669" lon="-1.5822">
        <ele>77</ele>
        <time>2016-07-14T09:06:48.000Z</time>
      </trkpt>
      <trkpt lat="47.4669" lon="-1.58233">
        <ele>77</ele>
        <time>2016-07-14T09:06:55.000Z</time>
      </trkpt>
      <trkpt lat="47.46691" lon="-1.58248">
        <ele>79</ele>
        <time>2016-07-14T09:07:05.000Z</time>
      </trkpt>
      <trkpt lat="47.4669" lon="-1.58262">
        <ele>81</ele>
        <time>2016-07-14T09:07:11.000Z</time>
      </trkpt>
      <trkpt lat="47.46689" lon="-1.58275">
        <ele>77</ele>
        <time>2016-07-14T09:07:19.000Z</time>
      </trkpt>
      <trkpt lat="47.46685" lon="-1.58288">
        <ele>80</ele>
        <time>2016-07-14T09:07:27.000Z</time>
      </trkpt>
      <trkpt lat="47.46681" lon="-1.58301">
        <ele>82</ele>
        <time>2016-07-14T09:07:34.000Z</time>
      </trkpt>
      <trkpt lat="47.46677" lon="-1.58316">
        <ele>83</ele>
        <time>2016-07-14T09:07:42.000Z</time>
      </trkpt>
      <trkpt lat="47.46675" lon="-1.58329">
        <ele>84</ele>
        <time>2016-07-14T09:07:48.000Z</time>
      </trkpt>
      <trkpt lat="47.46671" lon="-1.58341">
        <ele>86</ele>
        <time>2016-07-14T09:07:55.000Z</time>
      </trkpt>
      <trkpt lat="47.46668" lon="-1.58354">
        <ele>83</ele>
        <time>2016-07-14T09:08:12.000Z</time>
      </trkpt>
      <trkpt lat="47.46662" lon="-1.58366">
        <ele>87</ele>
        <time>2016-07-14T09:08:21.000Z</time>
      </trkpt>
      <trkpt lat="47.46655" lon="-1.58377">
        <ele>89</ele>
        <time>2016-07-14T09:08:30.000Z</time>
      </trkpt>
      <trkpt lat="47.46651" lon="-1.58391">
        <ele>84</ele>
        <time>2016-07-14T09:08:37.000Z</time>
      </trkpt>
      <trkpt lat="47.46646" lon="-1.58402">
        <ele>82</ele>
        <time>2016-07-14T09:08:44.000Z</time>
      </trkpt>
      <trkpt lat="47.46641" lon="-1.58416">
        <ele>85</ele>
        <time>2016-07-14T09:08:51.000Z</time>
      </trkpt>
      <trkpt lat="47.46638" lon="-1.58428">
        <ele>85</ele>
        <time>2016-07-14T09:09:05.000Z</time>
      </trkpt>
      <trkpt lat="47.46632" lon="-1.58439">
        <ele>85</ele>
        <time>2016-07-14T09:09:12.000Z</time>
      </trkpt>
      <trkpt lat="47.46628" lon="-1.58453">
        <ele>81</ele>
        <time>2016-07-14T09:09:19.000Z</time>
      </trkpt>
      <trkpt lat="47.46622" lon="-1.58462">
        <ele>82</ele>
        <time>2016-07-14T09:09:34.000Z</time>
      </trkpt>
      <trkpt lat="47.46613" lon="-1.58471">
        <ele>84</ele>
        <time>2016-07-14T09:09:53.000Z</time>
      </trkpt>
      <trkpt lat="47.46606" lon="-1.58479">
        <ele>84</ele>
        <time>2016-07-14T09:10:00.000Z</time>
      </trkpt>
      <trkpt lat="47.46598" lon="-1.58487">
        <ele>81</ele>
        <time>2016-07-14T09:10:13.000Z</time>
      </trkpt>
      <trkpt lat="47.46591" lon="-1.58497">
        <ele>77</ele>
        <time>2016-07-14T09:10:20.000Z</time>
      </trkpt>
      <trkpt lat="47.46581" lon="-1.58502">
        <ele>80</ele>
        <time>2016-07-14T09:10:29.000Z</time>
      </trkpt>
      <trkpt lat="47.46572" lon="-1.58506">
        <ele>83</ele>
        <time>2016-07-14T09:10:35.000Z</time>
      </trkpt>
      <trkpt lat="47.46565" lon="-1.58515">
        <ele>84</ele>
        <time>2016-07-14T09:10:42.000Z</time>
      </trkpt>
      <trkpt lat="47.46556" lon="-1.5852">
        <ele>82</ele>
        <time>2016-07-14T09:10:50.000Z</time>
      </trkpt>
      <trkpt lat="47.46547" lon="-1.58525">
        <ele>85</ele>
        <time>2016-07-14T09:10:57.000Z</time>
      </trkpt>
      <trkpt lat="47.46539" lon="-1.58534">
        <ele>84</ele>
        <time>2016-07-14T09:11:04.000Z</time>
      </trkpt>
      <trkpt lat="47.46529" lon="-1.58542">
        <ele>82</ele>
        <time>2016-07-14T09:11:11.000Z</time>
      </trkpt>
      <trkpt lat="47.4652" lon="-1.58548">
        <ele>81</ele>
        <time>2016-07-14T09:11:18.000Z</time>
      </trkpt>
      <trkpt lat="47.46511" lon="-1.58557">
        <ele>79</ele>
        <time>2016-07-14T09:11:26.000Z</time>
      </trkpt>
      <trkpt lat="47.46503" lon="-1.58563">
        <ele>81</ele>
        <time>2016-07-14T09:11:33.000Z</time>
      </trkpt>
      <trkpt lat="47.46495" lon="-1.5857">
        <ele>83</ele>
        <time>2016-07-14T09:11:49.000Z</time>
      </trkpt>
      <trkpt lat="47.46494" lon="-1.58584">
        <ele>76</ele>
        <time>2016-07-14T09:12:01.000Z</time>
      </trkpt>
      <trkpt lat="47.46488" lon="-1.58597">
        <ele>76</ele>
        <time>2016-07-14T09:12:08.000Z</time>
      </trkpt>
      <trkpt lat="47.46483" lon="-1.5861">
        <ele>79</ele>
        <time>2016-07-14T09:12:16.000Z</time>
      </trkpt>
      <trkpt lat="47.46481" lon="-1.58624">
        <ele>80</ele>
        <time>2016-07-14T09:12:22.000Z</time>
      </trkpt>
      <trkpt lat="47.46479" lon="-1.58637">
        <ele>77</ele>
        <time>2016-07-14T09:12:28.000Z</time>
      </trkpt>
      <trkpt lat="47.46478" lon="-1.58651">
        <ele>79</ele>
        <time>2016-07-14T09:12:34.000Z</time>
      </trkpt>
      <trkpt lat="47.46474" lon="-1.58663">
        <ele>80</ele>
        <time>2016-07-14T09:12:42.000Z</time>
      </trkpt>
      <trkpt lat="47.46469" lon="-1.58677">
        <ele>84</ele>
        <time>2016-07-14T09:12:53.000Z</time>
      </trkpt>
      <trkpt lat="47.46465" lon="-1.5869">
        <ele>86</ele>
        <time>2016-07-14T09:13:00.000Z</time>
      </trkpt>
      <trkpt lat="47.46464" lon="-1.58703">
        <ele>86</ele>
        <time>2016-07-14T09:13:05.000Z</time>
      </trkpt>
      <trkpt lat="47.46464" lon="-1.58717">
        <ele>83</ele>
        <time>2016-07-14T09:13:12.000Z</time>
      </trkpt>
      <trkpt lat="47.46464" lon="-1.58732">
        <ele>79</ele>
        <time>2016-07-14T09:13:23.000Z</time>
      </trkpt>
      <trkpt lat="47.46463" lon="-1.58747">
        <ele>81</ele>
        <time>2016-07-14T09:13:32.000Z</time>
      </trkpt>
      <trkpt lat="47.46462" lon="-1.58761">
        <ele>85</ele>
        <time>2016-07-14T09:13:37.000Z</time>
      </trkpt>
      <trkpt lat="47.46463" lon="-1.58775">
        <ele>80</ele>
        <time>2016-07-14T09:13:45.000Z</time>
      </trkpt>
      <trkpt lat="47.46462" lon="-1.58788">
        <ele>78</ele>
        <time>2016-07-14T09:15:21.000Z</time>
      </trkpt>
      <trkpt lat="47.46463" lon="-1.58802">
        <ele>77</ele>
        <time>2016-07-14T09:15:26.000Z</time>
      </trkpt>
      <trkpt lat="47.46465" lon="-1.58816">
        <ele>77</ele>
        <time>2016-07-14T09:15:30.000Z</time>
      </trkpt>
      <trkpt lat="47.46465" lon="-1.58829">
        <ele>83</ele>
        <time>2016-07-14T09:15:41.000Z</time>
      </trkpt>
      <trkpt lat="47.46468" lon="-1.58842">
        <ele>82</ele>
        <time>2016-07-14T09:15:49.000Z</time>
      </trkpt>
      <trkpt lat="47.46467" lon="-1.58856">
        <ele>82</ele>
        <time>2016-07-14T09:16:05.000Z</time>
      </trkpt>
      <trkpt lat="47.46468" lon="-1.5887">
        <ele>82</ele>
        <time>2016-07-14T09:16:13.000Z</time>
      </trkpt>
      <trkpt lat="47.4647" lon="-1.58884">
        <ele>82</ele>
        <time>2016-07-14T09:16:34.000Z</time>
      </trkpt>
      <trkpt lat="47.46471" lon="-1.58898">
        <ele>85</ele>
        <time>2016-07-14T09:16:42.000Z</time>
      </trkpt>
      <trkpt lat="47.46472" lon="-1.58914">
        <ele>86</ele>
        <time>2016-07-14T09:16:49.000Z</time>
      </trkpt>
      <trkpt lat="47.46475" lon="-1.58928">
        <ele>79</ele>
        <time>2016-07-14T09:16:54.000Z</time>
      </trkpt>
      <trkpt lat="47.46473" lon="-1.58942">
        <ele>77</ele>
        <time>2016-07-14T09:17:03.000Z</time>
      </trkpt>
      <trkpt lat="47.46475" lon="-1.58957">
        <ele>76</ele>
        <time>2016-07-14T09:17:08.000Z</time>
      </trkpt>
      <trkpt lat="47.46476" lon="-1.58972">
        <ele>77</ele>
        <time>2016-07-14T09:17:18.000Z</time>
      </trkpt>
      <trkpt lat="47.46477" lon="-1.58986">
        <ele>75</ele>
        <time>2016-07-14T09:17:23.000Z</time>
      </trkpt>
      <trkpt lat="47.46479" lon="-1.59">
        <ele>78</ele>
        <time>2016-07-14T09:17:31.000Z</time>
      </trkpt>
      <trkpt lat="47.46479" lon="-1.59019">
        <ele>80</ele>
        <time>2016-07-14T09:17:40.000Z</time>
      </trkpt>
      <trkpt lat="47.46482" lon="-1.59033">
        <ele>81</ele>
        <time>2016-07-14T09:17:48.000Z</time>
      </trkpt>
      <trkpt lat="47.46481" lon="-1.59047">
        <ele>78</ele>
        <time>2016-07-14T09:17:55.000Z</time>
      </trkpt>
      <trkpt lat="47.46474" lon="-1.59058">
        <ele>73</ele>
        <time>2016-07-14T09:18:22.000Z</time>
      </trkpt>
      <trkpt lat="47.46465" lon="-1.59061">
        <ele>74</ele>
        <time>2016-07-14T09:18:28.000Z</time>
      </trkpt>
      <trkpt lat="47.46457" lon="-1.59066">
        <ele>75</ele>
        <time>2016-07-14T09:18:48.000Z</time>
      </trkpt>
      <trkpt lat="47.46448" lon="-1.59068">
        <ele>78</ele>
        <time>2016-07-14T09:18:55.000Z</time>
      </trkpt>
      <trkpt lat="47.46439" lon="-1.59071">
        <ele>77</ele>
        <time>2016-07-14T09:19:03.000Z</time>
      </trkpt>
      <trkpt lat="47.46429" lon="-1.59074">
        <ele>78</ele>
        <time>2016-07-14T09:19:10.000Z</time>
      </trkpt>
      <trkpt lat="47.4642" lon="-1.59078">
        <ele>78</ele>
        <time>2016-07-14T09:19:18.000Z</time>
      </trkpt>
      <trkpt lat="47.46412" lon="-1.59083">
        <ele>76</ele>
        <time>2016-07-14T09:19:32.000Z</time>
      </trkpt>
      <trkpt lat="47.46403" lon="-1.59087">
        <ele>75</ele>
        <time>2016-07-14T09:19:42.000Z</time>
      </trkpt>
      <trkpt lat="47.46394" lon="-1.5909">
        <ele>76</ele>
        <time>2016-07-14T09:19:49.000Z</time>
      </trkpt>
      <trkpt lat="47.46384" lon="-1.59095">
        <ele>75</ele>
        <time>2016-07-14T09:20:00.000Z</time>
      </trkpt>
      <trkpt lat="47.46375" lon="-1.59099">
        <ele>75</ele>
        <time>2016-07-14T09:20:08.000Z</time>
      </trkpt>
      <trkpt lat="47.46366" lon="-1.59102">
        <ele>77</ele>
        <time>2016-07-14T09:20:15.000Z</time>
      </trkpt>
      <trkpt lat="47.46356" lon="-1.59104">
        <ele>77</ele>
        <time>2016-07-14T09:20:23.000Z</time>
      </trkpt>
      <trkpt lat="47.46346" lon="-1.59106">
        <ele>76</ele>
        <time>2016-07-14T09:20:31.000Z</time>
      </trkpt>
      <trkpt lat="47.46338" lon="-1.59112">
        <ele>78</ele>
        <time>2016-07-14T09:21:10.000Z</time>
      </trkpt>
      <trkpt lat="47.46328" lon="-1.59118">
        <ele>76</ele>
        <time>2016-07-14T09:21:17.000Z</time>
      </trkpt>
      <trkpt lat="47.46318" lon="-1.59119">
        <ele>77</ele>
        <time>2016-07-14T09:21:26.000Z</time>
      </trkpt>
      <trkpt lat="47.46309" lon="-1.59124">
        <ele>76</ele>
        <time>2016-07-14T09:21:34.000Z</time>
      </trkpt>
      <trkpt lat="47.463" lon="-1.5913">
        <ele>75</ele>
        <time>2016-07-14T09:21:41.000Z</time>
      </trkpt>
      <trkpt lat="47.46291" lon="-1.59133">
        <ele>77</ele>
        <time>2016-07-14T09:22:12.000Z</time>
      </trkpt>
      <trkpt lat="47.4628" lon="-1.59138">
        <ele>75</ele>
        <time>2016-07-14T09:22:19.000Z</time>
      </trkpt>
      <trkpt lat="47.46271" lon="-1.59142">
        <ele>76</ele>
        <time>2016-07-14T09:22:27.000Z</time>
      </trkpt>
      <trkpt lat="47.46262" lon="-1.59144">
        <ele>76</ele>
        <time>2016-07-14T09:22:34.000Z</time>
      </trkpt>
      <trkpt lat="47.46237" lon="-1.5916">
        <ele>82</ele>
        <time>2016-07-14T09:22:49.000Z</time>
      </trkpt>
      <trkpt lat="47.46228" lon="-1.59162">
        <ele>75</ele>
        <time>2016-07-14T09:22:59.000Z</time>
      </trkpt>
      <trkpt lat="47.46218" lon="-1.59165">
        <ele>74</ele>
        <time>2016-07-14T09:23:07.000Z</time>
      </trkpt>
      <trkpt lat="47.46209" lon="-1.59167">
        <ele>73</ele>
        <time>2016-07-14T09:23:16.000Z</time>
      </trkpt>
      <trkpt lat="47.46198" lon="-1.59169">
        <ele>75</ele>
        <time>2016-07-14T09:23:23.000Z</time>
      </trkpt>
      <trkpt lat="47.46189" lon="-1.59167">
        <ele>78</ele>
        <time>2016-07-14T09:23:32.000Z</time>
      </trkpt>
      <trkpt lat="47.46177" lon="-1.59172">
        <ele>79</ele>
        <time>2016-07-14T09:23:41.000Z</time>
      </trkpt>
      <trkpt lat="47.46167" lon="-1.59176">
        <ele>80</ele>
        <time>2016-07-14T09:23:49.000Z</time>
      </trkpt>
      <trkpt lat="47.46159" lon="-1.59181">
        <ele>79</ele>
        <time>2016-07-14T09:23:55.000Z</time>
      </trkpt>
      <trkpt lat="47.46149" lon="-1.59188">
        <ele>77</ele>
        <time>2016-07-14T09:24:04.000Z</time>
      </trkpt>
      <trkpt lat="47.4614" lon="-1.59193">
        <ele>78</ele>
        <time>2016-07-14T09:24:18.000Z</time>
      </trkpt>
      <trkpt lat="47.46131" lon="-1.59194">
        <ele>80</ele>
        <time>2016-07-14T09:24:25.000Z</time>
      </trkpt>
      <trkpt lat="47.46122" lon="-1.59199">
        <ele>79</ele>
        <time>2016-07-14T09:24:32.000Z</time>
      </trkpt>
      <trkpt lat="47.46111" lon="-1.59202">
        <ele>77</ele>
        <time>2016-07-14T09:24:39.000Z</time>
      </trkpt>
      <trkpt lat="47.46103" lon="-1.59205">
        <ele>78</ele>
        <time>2016-07-14T09:24:46.000Z</time>
      </trkpt>
      <trkpt lat="47.46093" lon="-1.5921">
        <ele>78</ele>
        <time>2016-07-14T09:24:53.000Z</time>
      </trkpt>
      <trkpt lat="47.46084" lon="-1.59216">
        <ele>75</ele>
        <time>2016-07-14T09:25:01.000Z</time>
      </trkpt>
      <trkpt lat="47.46075" lon="-1.59223">
        <ele>73</ele>
        <time>2016-07-14T09:25:09.000Z</time>
      </trkpt>
      <trkpt lat="47.46067" lon="-1.59228">
        <ele>75</ele>
        <time>2016-07-14T09:25:16.000Z</time>
      </trkpt>
      <trkpt lat="47.46058" lon="-1.59233">
        <ele>76</ele>
        <time>2016-07-14T09:25:23.000Z</time>
      </trkpt>
      <trkpt lat="47.4605" lon="-1.59242">
        <ele>77</ele>
        <time>2016-07-14T09:25:35.000Z</time>
      </trkpt>
      <trkpt lat="47.4604" lon="-1.59247">
        <ele>81</ele>
        <time>2016-07-14T09:25:41.000Z</time>
      </trkpt>
      <trkpt lat="47.46031" lon="-1.59252">
        <ele>85</ele>
        <time>2016-07-14T09:25:49.000Z</time>
      </trkpt>
      <trkpt lat="47.46022" lon="-1.59256">
        <ele>84</ele>
        <time>2016-07-14T09:25:58.000Z</time>
      </trkpt>
      <trkpt lat="47.46013" lon="-1.59258">
        <ele>83</ele>
        <time>2016-07-14T09:26:04.000Z</time>
      </trkpt>
      <trkpt lat="47.46005" lon="-1.59265">
        <ele>85</ele>
        <time>2016-07-14T09:26:10.000Z</time>
      </trkpt>
      <trkpt lat="47.45995" lon="-1.59271">
        <ele>87</ele>
        <time>2016-07-14T09:26:19.000Z</time>
      </trkpt>
      <trkpt lat="47.45987" lon="-1.59281">
        <ele>86</ele>
        <time>2016-07-14T09:26:28.000Z</time>
      </trkpt>
      <trkpt lat="47.45979" lon="-1.59288">
        <ele>82</ele>
        <time>2016-07-14T09:26:44.000Z</time>
      </trkpt>
      <trkpt lat="47.45971" lon="-1.59293">
        <ele>80</ele>
        <time>2016-07-14T09:26:52.000Z</time>
      </trkpt>
      <trkpt lat="47.45963" lon="-1.59301">
        <ele>77</ele>
        <time>2016-07-14T09:27:08.000Z</time>
      </trkpt>
      <trkpt lat="47.45953" lon="-1.59307">
        <ele>79</ele>
        <time>2016-07-14T09:27:18.000Z</time>
      </trkpt>
      <trkpt lat="47.45945" lon="-1.59313">
        <ele>80</ele>
        <time>2016-07-14T09:27:24.000Z</time>
      </trkpt>
      <trkpt lat="47.45937" lon="-1.59322">
        <ele>79</ele>
        <time>2016-07-14T09:27:32.000Z</time>
      </trkpt>
      <trkpt lat="47.45929" lon="-1.5933">
        <ele>78</ele>
        <time>2016-07-14T09:27:41.000Z</time>
      </trkpt>
      <trkpt lat="47.4592" lon="-1.59333">
        <ele>77</ele>
        <time>2016-07-14T09:27:48.000Z</time>
      </trkpt>
      <trkpt lat="47.45912" lon="-1.59339">
        <ele>77</ele>
        <time>2016-07-14T09:27:56.000Z</time>
      </trkpt>
      <trkpt lat="47.45903" lon="-1.59344">
        <ele>76</ele>
        <time>2016-07-14T09:28:06.000Z</time>
      </trkpt>
      <trkpt lat="47.45894" lon="-1.59349">
        <ele>80</ele>
        <time>2016-07-14T09:28:14.000Z</time>
      </trkpt>
      <trkpt lat="47.45885" lon="-1.59354">
        <ele>78</ele>
        <time>2016-07-14T09:28:20.000Z</time>
      </trkpt>
      <trkpt lat="47.45877" lon="-1.59361">
        <ele>78</ele>
        <time>2016-07-14T09:28:28.000Z</time>
      </trkpt>
      <trkpt lat="47.45868" lon="-1.59369">
        <ele>80</ele>
        <time>2016-07-14T09:28:37.000Z</time>
      </trkpt>
      <trkpt lat="47.4586" lon="-1.59375">
        <ele>78</ele>
        <time>2016-07-14T09:28:46.000Z</time>
      </trkpt>
      <trkpt lat="47.45853" lon="-1.59384">
        <ele>76</ele>
        <time>2016-07-14T09:28:51.000Z</time>
      </trkpt>
      <trkpt lat="47.45844" lon="-1.59387">
        <ele>77</ele>
        <time>2016-07-14T09:28:58.000Z</time>
      </trkpt>
      <trkpt lat="47.45834" lon="-1.59391">
        <ele>79</ele>
        <time>2016-07-14T09:29:05.000Z</time>
      </trkpt>
      <trkpt lat="47.45826" lon="-1.59398">
        <ele>81</ele>
        <time>2016-07-14T09:29:23.000Z</time>
      </trkpt>
      <trkpt lat="47.45816" lon="-1.59404">
        <ele>84</ele>
        <time>2016-07-14T09:29:30.000Z</time>
      </trkpt>
      <trkpt lat="47.45806" lon="-1.59411">
        <ele>82</ele>
        <time>2016-07-14T09:29:38.000Z</time>
      </trkpt>
      <trkpt lat="47.45799" lon="-1.59418">
        <ele>80</ele>
        <time>2016-07-14T09:29:47.000Z</time>
      </trkpt>
      <trkpt lat="47.4579" lon="-1.59425">
        <ele>76</ele>
        <time>2016-07-14T09:29:53.000Z</time>
      </trkpt>
      <trkpt lat="47.45782" lon="-1.59432">
        <ele>77</ele>
        <time>2016-07-14T09:30:00.000Z</time>
      </trkpt>
      <trkpt lat="47.45772" lon="-1.59432">
        <ele>79</ele>
        <time>2016-07-14T09:30:08.000Z</time>
      </trkpt>
      <trkpt lat="47.45764" lon="-1.59441">
        <ele>80</ele>
        <time>2016-07-14T09:30:22.000Z</time>
      </trkpt>
      <trkpt lat="47.45754" lon="-1.59452">
        <ele>77</ele>
        <time>2016-07-14T09:30:46.000Z</time>
      </trkpt>
      <trkpt lat="47.45746" lon="-1.59459">
        <ele>80</ele>
        <time>2016-07-14T09:30:54.000Z</time>
      </trkpt>
      <trkpt lat="47.45738" lon="-1.59464">
        <ele>77</ele>
        <time>2016-07-14T09:30:59.000Z</time>
      </trkpt>
      <trkpt lat="47.45729" lon="-1.59471">
        <ele>78</ele>
        <time>2016-07-14T09:31:07.000Z</time>
      </trkpt>
      <trkpt lat="47.45722" lon="-1.5948">
        <ele>74</ele>
        <time>2016-07-14T09:31:15.000Z</time>
      </trkpt>
      <trkpt lat="47.45713" lon="-1.59481">
        <ele>75</ele>
        <time>2016-07-14T09:31:20.000Z</time>
      </trkpt>
      <trkpt lat="47.45702" lon="-1.59487">
        <ele>77</ele>
        <time>2016-07-14T09:31:28.000Z</time>
      </trkpt>
      <trkpt lat="47.45694" lon="-1.59491">
        <ele>78</ele>
        <time>2016-07-14T09:31:36.000Z</time>
      </trkpt>
      <trkpt lat="47.45685" lon="-1.59499">
        <ele>77</ele>
        <time>2016-07-14T09:31:42.000Z</time>
      </trkpt>
      <trkpt lat="47.45677" lon="-1.59504">
        <ele>75</ele>
        <time>2016-07-14T09:31:57.000Z</time>
      </trkpt>
      <trkpt lat="47.45668" lon="-1.5951">
        <ele>76</ele>
        <time>2016-07-14T09:32:05.000Z</time>
      </trkpt>
      <trkpt lat="47.45658" lon="-1.59514">
        <ele>77</ele>
        <time>2016-07-14T09:32:13.000Z</time>
      </trkpt>
      <trkpt lat="47.45649" lon="-1.59521">
        <ele>79</ele>
        <time>2016-07-14T09:32:20.000Z</time>
      </trkpt>
      <trkpt lat="47.4564" lon="-1.59526">
        <ele>81</ele>
        <time>2016-07-14T09:32:26.000Z</time>
      </trkpt>
      <trkpt lat="47.45631" lon="-1.5953">
        <ele>82</ele>
        <time>2016-07-14T09:32:36.000Z</time>
      </trkpt>
      <trkpt lat="47.45623" lon="-1.59537">
        <ele>80</ele>
        <time>2016-07-14T09:32:44.000Z</time>
      </trkpt>
      <trkpt lat="47.45615" lon="-1.59544">
        <ele>78</ele>
        <time>2016-07-14T09:33:07.000Z</time>
      </trkpt>
      <trkpt lat="47.45607" lon="-1.59551">
        <ele>79</ele>
        <time>2016-07-14T09:33:14.000Z</time>
      </trkpt>
      <trkpt lat="47.45597" lon="-1.59557">
        <ele>83</ele>
        <time>2016-07-14T09:33:27.000Z</time>
      </trkpt>
      <trkpt lat="47.45589" lon="-1.59566">
        <ele>82</ele>
        <time>2016-07-14T09:33:36.000Z</time>
      </trkpt>
      <trkpt lat="47.4558" lon="-1.59569">
        <ele>81</ele>
        <time>2016-07-14T09:33:43.000Z</time>
      </trkpt>
      <trkpt lat="47.45572" lon="-1.59578">
        <ele>79</ele>
        <time>2016-07-14T09:33:50.000Z</time>
      </trkpt>
      <trkpt lat="47.45564" lon="-1.59585">
        <ele>80</ele>
        <time>2016-07-14T09:33:58.000Z</time>
      </trkpt>
      <trkpt lat="47.45554" lon="-1.59591">
        <ele>78</ele>
        <time>2016-07-14T09:34:07.000Z</time>
      </trkpt>
      <trkpt lat="47.45544" lon="-1.59596">
        <ele>79</ele>
        <time>2016-07-14T09:34:14.000Z</time>
      </trkpt>
      <trkpt lat="47.45536" lon="-1.59601">
        <ele>80</ele>
        <time>2016-07-14T09:34:21.000Z</time>
      </trkpt>
      <trkpt lat="47.45527" lon="-1.5961">
        <ele>80</ele>
        <time>2016-07-14T09:34:29.000Z</time>
      </trkpt>
      <trkpt lat="47.45518" lon="-1.59617">
        <ele>81</ele>
        <time>2016-07-14T09:34:38.000Z</time>
      </trkpt>
      <trkpt lat="47.45509" lon="-1.59624">
        <ele>80</ele>
        <time>2016-07-14T09:34:46.000Z</time>
      </trkpt>
      <trkpt lat="47.455" lon="-1.59627">
        <ele>79</ele>
        <time>2016-07-14T09:34:52.000Z</time>
      </trkpt>
      <trkpt lat="47.45491" lon="-1.59635">
        <ele>78</ele>
        <time>2016-07-14T09:35:00.000Z</time>
      </trkpt>
      <trkpt lat="47.45483" lon="-1.59641">
        <ele>81</ele>
        <time>2016-07-14T09:35:11.000Z</time>
      </trkpt>
      <trkpt lat="47.45474" lon="-1.59646">
        <ele>83</ele>
        <time>2016-07-14T09:35:19.000Z</time>
      </trkpt>
      <trkpt lat="47.45466" lon="-1.59652">
        <ele>82</ele>
        <time>2016-07-14T09:35:26.000Z</time>
      </trkpt>
      <trkpt lat="47.45458" lon="-1.59658">
        <ele>81</ele>
        <time>2016-07-14T09:35:33.000Z</time>
      </trkpt>
      <trkpt lat="47.45448" lon="-1.59662">
        <ele>80</ele>
        <time>2016-07-14T09:35:42.000Z</time>
      </trkpt>
      <trkpt lat="47.45441" lon="-1.59671">
        <ele>76</ele>
        <time>2016-07-14T09:35:49.000Z</time>
      </trkpt>
      <trkpt lat="47.45432" lon="-1.59672">
        <ele>76</ele>
        <time>2016-07-14T09:35:59.000Z</time>
      </trkpt>
      <trkpt lat="47.45424" lon="-1.59664">
        <ele>71</ele>
        <time>2016-07-14T09:36:22.000Z</time>
      </trkpt>
      <trkpt lat="47.4542" lon="-1.59652">
        <ele>71</ele>
        <time>2016-07-14T09:36:31.000Z</time>
      </trkpt>
      <trkpt lat="47.45417" lon="-1.59638">
        <ele>75</ele>
        <time>2016-07-14T09:36:38.000Z</time>
      </trkpt>
      <trkpt lat="47.45413" lon="-1.59623">
        <ele>76</ele>
        <time>2016-07-14T09:36:48.000Z</time>
      </trkpt>
      <trkpt lat="47.45409" lon="-1.5961">
        <ele>77</ele>
        <time>2016-07-14T09:36:55.000Z</time>
      </trkpt>
      <trkpt lat="47.45404" lon="-1.59599">
        <ele>76</ele>
        <time>2016-07-14T09:37:01.000Z</time>
      </trkpt>
      <trkpt lat="47.45397" lon="-1.5959">
        <ele>72</ele>
        <time>2016-07-14T09:37:09.000Z</time>
      </trkpt>
      <trkpt lat="47.45394" lon="-1.59577">
        <ele>72</ele>
        <time>2016-07-14T09:37:18.000Z</time>
      </trkpt>
      <trkpt lat="47.4539" lon="-1.59564">
        <ele>71</ele>
        <time>2016-07-14T09:37:34.000Z</time>
      </trkpt>
      <trkpt lat="47.45384" lon="-1.5955">
        <ele>74</ele>
        <time>2016-07-14T09:37:43.000Z</time>
      </trkpt>
      <trkpt lat="47.45379" lon="-1.59537">
        <ele>73</ele>
        <time>2016-07-14T09:37:52.000Z</time>
      </trkpt>
      <trkpt lat="47.45375" lon="-1.59524">
        <ele>74</ele>
        <time>2016-07-14T09:38:00.000Z</time>
      </trkpt>
      <trkpt lat="47.45372" lon="-1.59512">
        <ele>76</ele>
        <time>2016-07-14T09:38:06.000Z</time>
      </trkpt>
      <trkpt lat="47.45366" lon="-1.595">
        <ele>75</ele>
        <time>2016-07-14T09:38:26.000Z</time>
      </trkpt>
      <trkpt lat="47.45362" lon="-1.59487">
        <ele>73</ele>
        <time>2016-07-14T09:38:35.000Z</time>
      </trkpt>
      <trkpt lat="47.45356" lon="-1.59477">
        <ele>72</ele>
        <time>2016-07-14T09:38:42.000Z</time>
      </trkpt>
      <trkpt lat="47.45353" lon="-1.59464">
        <ele>73</ele>
        <time>2016-07-14T09:38:50.000Z</time>
      </trkpt>
      <trkpt lat="47.45349" lon="-1.59452">
        <ele>74</ele>
        <time>2016-07-14T09:38:57.000Z</time>
      </trkpt>
      <trkpt lat="47.45344" lon="-1.59438">
        <ele>73</ele>
        <time>2016-07-14T09:39:06.000Z</time>
      </trkpt>
      <trkpt lat="47.45338" lon="-1.59426">
        <ele>73</ele>
        <time>2016-07-14T09:39:12.000Z</time>
      </trkpt>
      <trkpt lat="47.45334" lon="-1.59413">
        <ele>73</ele>
        <time>2016-07-14T09:39:21.000Z</time>
      </trkpt>
      <trkpt lat="47.45332" lon="-1.594">
        <ele>73</ele>
        <time>2016-07-14T09:39:29.000Z</time>
      </trkpt>
      <trkpt lat="47.45329" lon="-1.59387">
        <ele>72</ele>
        <time>2016-07-14T09:39:36.000Z</time>
      </trkpt>
      <trkpt lat="47.45326" lon="-1.59373">
        <ele>72</ele>
        <time>2016-07-14T09:39:43.000Z</time>
      </trkpt>
      <trkpt lat="47.45322" lon="-1.59361">
        <ele>74</ele>
        <time>2016-07-14T09:39:51.000Z</time>
      </trkpt>
      <trkpt lat="47.4532" lon="-1.59346">
        <ele>72</ele>
        <time>2016-07-14T09:39:56.000Z</time>
      </trkpt>
      <trkpt lat="47.4532" lon="-1.5933">
        <ele>74</ele>
        <time>2016-07-14T09:40:05.000Z</time>
      </trkpt>
      <trkpt lat="47.45321" lon="-1.59317">
        <ele>76</ele>
        <time>2016-07-14T09:40:14.000Z</time>
      </trkpt>
      <trkpt lat="47.45318" lon="-1.59303">
        <ele>76</ele>
        <time>2016-07-14T09:40:27.000Z</time>
      </trkpt>
      <trkpt lat="47.45314" lon="-1.59289">
        <ele>77</ele>
        <time>2016-07-14T09:40:35.000Z</time>
      </trkpt>
      <trkpt lat="47.45312" lon="-1.59274">
        <ele>77</ele>
        <time>2016-07-14T09:40:44.000Z</time>
      </trkpt>
      <trkpt lat="47.45308" lon="-1.5926">
        <ele>78</ele>
        <time>2016-07-14T09:40:53.000Z</time>
      </trkpt>
      <trkpt lat="47.45305" lon="-1.59245">
        <ele>76</ele>
        <time>2016-07-14T09:41:04.000Z</time>
      </trkpt>
      <trkpt lat="47.45304" lon="-1.5923">
        <ele>80</ele>
        <time>2016-07-14T09:41:13.000Z</time>
      </trkpt>
      <trkpt lat="47.45303" lon="-1.59216">
        <ele>79</ele>
        <time>2016-07-14T09:41:21.000Z</time>
      </trkpt>
      <trkpt lat="47.453" lon="-1.59202">
        <ele>76</ele>
        <time>2016-07-14T09:41:46.000Z</time>
      </trkpt>
      <trkpt lat="47.45296" lon="-1.59189">
        <ele>74</ele>
        <time>2016-07-14T09:42:01.000Z</time>
      </trkpt>
      <trkpt lat="47.45295" lon="-1.59174">
        <ele>76</ele>
        <time>2016-07-14T09:42:07.000Z</time>
      </trkpt>
      <trkpt lat="47.45293" lon="-1.5916">
        <ele>78</ele>
        <time>2016-07-14T09:42:16.000Z</time>
      </trkpt>
      <trkpt lat="47.45291" lon="-1.59145">
        <ele>79</ele>
        <time>2016-07-14T09:42:27.000Z</time>
      </trkpt>
      <trkpt lat="47.45289" lon="-1.59132">
        <ele>77</ele>
        <time>2016-07-14T09:42:34.000Z</time>
      </trkpt>
      <trkpt lat="47.45285" lon="-1.59119">
        <ele>73</ele>
        <time>2016-07-14T09:42:41.000Z</time>
      </trkpt>
      <trkpt lat="47.45282" lon="-1.59105">
        <ele>72</ele>
        <time>2016-07-14T09:42:50.000Z</time>
      </trkpt>
      <trkpt lat="47.45281" lon="-1.59091">
        <ele>74</ele>
        <time>2016-07-14T09:42:58.000Z</time>
      </trkpt>
      <trkpt lat="47.45276" lon="-1.59079">
        <ele>75</ele>
        <time>2016-07-14T09:43:05.000Z</time>
      </trkpt>
      <trkpt lat="47.45272" lon="-1.59066">
        <ele>74</ele>
        <time>2016-07-14T09:43:12.000Z</time>
      </trkpt>
      <trkpt lat="47.45269" lon="-1.59053">
        <ele>76</ele>
        <time>2016-07-14T09:43:21.000Z</time>
      </trkpt>
      <trkpt lat="47.45264" lon="-1.59042">
        <ele>76</ele>
        <time>2016-07-14T09:43:25.000Z</time>
      </trkpt>
      <trkpt lat="47.4526" lon="-1.5903">
        <ele>75</ele>
        <time>2016-07-14T09:43:34.000Z</time>
      </trkpt>
      <trkpt lat="47.45257" lon="-1.59016">
        <ele>75</ele>
        <time>2016-07-14T09:43:41.000Z</time>
      </trkpt>
      <trkpt lat="47.45254" lon="-1.58999">
        <ele>77</ele>
        <time>2016-07-14T09:43:49.000Z</time>
      </trkpt>
      <trkpt lat="47.45249" lon="-1.58985">
        <ele>76</ele>
        <time>2016-07-14T09:43:58.000Z</time>
      </trkpt>
      <trkpt lat="47.45246" lon="-1.58972">
        <ele>77</ele>
        <time>2016-07-14T09:44:02.000Z</time>
      </trkpt>
      <trkpt lat="47.45241" lon="-1.58959">
        <ele>75</ele>
        <time>2016-07-14T09:44:11.000Z</time>
      </trkpt>
      <trkpt lat="47.45238" lon="-1.58945">
        <ele>77</ele>
        <time>2016-07-14T09:44:17.000Z</time>
      </trkpt>
      <trkpt lat="47.45237" lon="-1.58931">
        <ele>74</ele>
        <time>2016-07-14T09:44:27.000Z</time>
      </trkpt>
      <trkpt lat="47.45233" lon="-1.58917">
        <ele>75</ele>
        <time>2016-07-14T09:44:33.000Z</time>
      </trkpt>
      <trkpt lat="47.45226" lon="-1.58908">
        <ele>74</ele>
        <time>2016-07-14T09:44:44.000Z</time>
      </trkpt>
      <trkpt lat="47.45214" lon="-1.58907">
        <ele>82</ele>
        <time>2016-07-14T09:44:59.000Z</time>
      </trkpt>
      <trkpt lat="47.45205" lon="-1.58905">
        <ele>84</ele>
        <time>2016-07-14T09:45:03.000Z</time>
      </trkpt>
      <trkpt lat="47.45195" lon="-1.58905">
        <ele>83</ele>
        <time>2016-07-14T09:45:12.000Z</time>
      </trkpt>
      <trkpt lat="47.4519" lon="-1.58917">
        <ele>83</ele>
        <time>2016-07-14T09:45:21.000Z</time>
      </trkpt>
      <trkpt lat="47.45189" lon="-1.58932">
        <ele>80</ele>
        <time>2016-07-14T09:45:28.000Z</time>
      </trkpt>
      <trkpt lat="47.45189" lon="-1.58948">
        <ele>77</ele>
        <time>2016-07-14T09:45:37.000Z</time>
      </trkpt>
      <trkpt lat="47.45186" lon="-1.58962">
        <ele>71</ele>
        <time>2016-07-14T09:45:44.000Z</time>
      </trkpt>
      <trkpt lat="47.45185" lon="-1.58975">
        <ele>78</ele>
        <time>2016-07-14T09:46:04.000Z</time>
      </trkpt>
      <trkpt lat="47.45188" lon="-1.58988">
        <ele>78</ele>
        <time>2016-07-14T09:46:12.000Z</time>
      </trkpt>
      <trkpt lat="47.45191" lon="-1.59004">
        <ele>77</ele>
        <time>2016-07-14T09:46:21.000Z</time>
      </trkpt>
      <trkpt lat="47.45193" lon="-1.59019">
        <ele>76</ele>
        <time>2016-07-14T09:46:28.000Z</time>
      </trkpt>
      <trkpt lat="47.45198" lon="-1.5903">
        <ele>79</ele>
        <time>2016-07-14T09:46:56.000Z</time>
      </trkpt>
      <trkpt lat="47.45199" lon="-1.59045">
        <ele>81</ele>
        <time>2016-07-14T09:47:06.000Z</time>
      </trkpt>
      <trkpt lat="47.452" lon="-1.59059">
        <ele>76</ele>
        <time>2016-07-14T09:47:12.000Z</time>
      </trkpt>
      <trkpt lat="47.45202" lon="-1.59072">
        <ele>77</ele>
        <time>2016-07-14T09:47:19.000Z</time>
      </trkpt>
      <trkpt lat="47.45205" lon="-1.59086">
        <ele>75</ele>
        <time>2016-07-14T09:47:42.000Z</time>
      </trkpt>
      <trkpt lat="47.45207" lon="-1.591">
        <ele>79</ele>
        <time>2016-07-14T09:47:54.000Z</time>
      </trkpt>
      <trkpt lat="47.45208" lon="-1.59116">
        <ele>76</ele>
        <time>2016-07-14T09:48:03.000Z</time>
      </trkpt>
      <trkpt lat="47.45213" lon="-1.59127">
        <ele>75</ele>
        <time>2016-07-14T09:48:25.000Z</time>
      </trkpt>
      <trkpt lat="47.45212" lon="-1.59141">
        <ele>80</ele>
        <time>2016-07-14T09:48:42.000Z</time>
      </trkpt>
      <trkpt lat="47.45217" lon="-1.59152">
        <ele>81</ele>
        <time>2016-07-14T09:48:50.000Z</time>
      </trkpt>
      <trkpt lat="47.45219" lon="-1.59166">
        <ele>73</ele>
        <time>2016-07-14T09:49:11.000Z</time>
      </trkpt>
      <trkpt lat="47.45222" lon="-1.5918">
        <ele>78</ele>
        <time>2016-07-14T09:49:18.000Z</time>
      </trkpt>
      <trkpt lat="47.45225" lon="-1.59194">
        <ele>81</ele>
        <time>2016-07-14T09:49:26.000Z</time>
      </trkpt>
      <trkpt lat="47.45221" lon="-1.59208">
        <ele>81</ele>
        <time>2016-07-14T09:49:38.000Z</time>
      </trkpt>
      <trkpt lat="47.45225" lon="-1.5922">
        <ele>82</ele>
        <time>2016-07-14T09:49:44.000Z</time>
      </trkpt>
      <trkpt lat="47.45226" lon="-1.59234">
        <ele>82</ele>
        <time>2016-07-14T09:49:52.000Z</time>
      </trkpt>
      <trkpt lat="47.45228" lon="-1.59247">
        <ele>83</ele>
        <time>2016-07-14T09:50:00.000Z</time>
      </trkpt>
      <trkpt lat="47.4523" lon="-1.59261">
        <ele>84</ele>
        <time>2016-07-14T09:50:08.000Z</time>
      </trkpt>
      <trkpt lat="47.4523" lon="-1.59275">
        <ele>85</ele>
        <time>2016-07-14T09:50:18.000Z</time>
      </trkpt>
      <trkpt lat="47.45234" lon="-1.59288">
        <ele>84</ele>
        <time>2016-07-14T09:50:25.000Z</time>
      </trkpt>
      <trkpt lat="47.45237" lon="-1.593">
        <ele>84</ele>
        <time>2016-07-14T09:50:36.000Z</time>
      </trkpt>
      <trkpt lat="47.45238" lon="-1.59314">
        <ele>84</ele>
        <time>2016-07-14T09:50:42.000Z</time>
      </trkpt>
      <trkpt lat="47.45241" lon="-1.59327">
        <ele>83</ele>
        <time>2016-07-14T09:50:48.000Z</time>
      </trkpt>
      <trkpt lat="47.45244" lon="-1.59341">
        <ele>80</ele>
        <time>2016-07-14T09:50:57.000Z</time>
      </trkpt>
      <trkpt lat="47.45248" lon="-1.59354">
        <ele>82</ele>
        <time>2016-07-14T09:51:06.000Z</time>
      </trkpt>
      <trkpt lat="47.4525" lon="-1.59368">
        <ele>84</ele>
        <time>2016-07-14T09:51:14.000Z</time>
      </trkpt>
      <trkpt lat="47.45253" lon="-1.5938">
        <ele>83</ele>
        <time>2016-07-14T09:51:21.000Z</time>
      </trkpt>
      <trkpt lat="47.45258" lon="-1.59394">
        <ele>79</ele>
        <time>2016-07-14T09:52:42.000Z</time>
      </trkpt>
      <trkpt lat="47.4526" lon="-1.59408">
        <ele>79</ele>
        <time>2016-07-14T09:53:11.000Z</time>
      </trkpt>
      <trkpt lat="47.45264" lon="-1.5942">
        <ele>79</ele>
        <time>2016-07-14T09:53:18.000Z</time>
      </trkpt>
      <trkpt lat="47.45264" lon="-1.59434">
        <ele>79</ele>
        <time>2016-07-14T09:53:27.000Z</time>
      </trkpt>
      <trkpt lat="47.45271" lon="-1.59445">
        <ele>82</ele>
        <time>2016-07-14T09:53:35.000Z</time>
      </trkpt>
      <trkpt lat="47.45274" lon="-1.59459">
        <ele>84</ele>
        <time>2016-07-14T09:53:44.000Z</time>
      </trkpt>
      <trkpt lat="47.45277" lon="-1.59474">
        <ele>80</ele>
        <time>2016-07-14T09:53:52.000Z</time>
      </trkpt>
      <trkpt lat="47.4528" lon="-1.59487">
        <ele>81</ele>
        <time>2016-07-14T09:53:59.000Z</time>
      </trkpt>
      <trkpt lat="47.45285" lon="-1.59499">
        <ele>84</ele>
        <time>2016-07-14T09:54:05.000Z</time>
      </trkpt>
      <trkpt lat="47.4529" lon="-1.59511">
        <ele>84</ele>
        <time>2016-07-14T09:54:13.000Z</time>
      </trkpt>
      <trkpt lat="47.45296" lon="-1.59525">
        <ele>83</ele>
        <time>2016-07-14T09:54:21.000Z</time>
      </trkpt>
      <trkpt lat="47.45302" lon="-1.59536">
        <ele>84</ele>
        <time>2016-07-14T09:54:28.000Z</time>
      </trkpt>
      <trkpt lat="47.45308" lon="-1.5955">
        <ele>86</ele>
        <time>2016-07-14T09:54:35.000Z</time>
      </trkpt>
      <trkpt lat="47.45308" lon="-1.59564">
        <ele>87</ele>
        <time>2016-07-14T09:54:44.000Z</time>
      </trkpt>
      <trkpt lat="47.45314" lon="-1.59575">
        <ele>87</ele>
        <time>2016-07-14T09:55:02.000Z</time>
      </trkpt>
      <trkpt lat="47.4532" lon="-1.59586">
        <ele>88</ele>
        <time>2016-07-14T09:55:09.000Z</time>
      </trkpt>
      <trkpt lat="47.45323" lon="-1.59599">
        <ele>88</ele>
        <time>2016-07-14T09:55:15.000Z</time>
      </trkpt>
      <trkpt lat="47.45327" lon="-1.59612">
        <ele>86</ele>
        <time>2016-07-14T09:55:27.000Z</time>
      </trkpt>
      <trkpt lat="47.45334" lon="-1.59621">
        <ele>85</ele>
        <time>2016-07-14T09:55:36.000Z</time>
      </trkpt>
      <trkpt lat="47.4534" lon="-1.59632">
        <ele>86</ele>
        <time>2016-07-14T09:55:42.000Z</time>
      </trkpt>
      <trkpt lat="47.45341" lon="-1.59645">
        <ele>82</ele>
        <time>2016-07-14T09:55:49.000Z</time>
      </trkpt>
      <trkpt lat="47.45343" lon="-1.59659">
        <ele>81</ele>
        <time>2016-07-14T09:55:58.000Z</time>
      </trkpt>
      <trkpt lat="47.4535" lon="-1.5967">
        <ele>78</ele>
        <time>2016-07-14T09:56:08.000Z</time>
      </trkpt>
      <trkpt lat="47.45357" lon="-1.59679">
        <ele>80</ele>
        <time>2016-07-14T09:56:26.000Z</time>
      </trkpt>
      <trkpt lat="47.45366" lon="-1.59682">
        <ele>84</ele>
        <time>2016-07-14T09:56:46.000Z</time>
      </trkpt>
      <trkpt lat="47.45375" lon="-1.59691">
        <ele>85</ele>
        <time>2016-07-14T09:56:58.000Z</time>
      </trkpt>
      <trkpt lat="47.45385" lon="-1.59693">
        <ele>85</ele>
        <time>2016-07-14T09:57:29.000Z</time>
      </trkpt>
      <trkpt lat="47.45395" lon="-1.59689">
        <ele>82</ele>
        <time>2016-07-14T09:57:42.000Z</time>
      </trkpt>
      <trkpt lat="47.45404" lon="-1.59686">
        <ele>80</ele>
        <time>2016-07-14T09:57:50.000Z</time>
      </trkpt>
      <trkpt lat="47.45415" lon="-1.59686">
        <ele>76</ele>
        <time>2016-07-14T09:58:08.000Z</time>
      </trkpt>
      <trkpt lat="47.45424" lon="-1.59683">
        <ele>76</ele>
        <time>2016-07-14T09:58:14.000Z</time>
      </trkpt>
      <trkpt lat="47.45434" lon="-1.59682">
        <ele>72</ele>
        <time>2016-07-14T09:58:26.000Z</time>
      </trkpt>
      <trkpt lat="47.45444" lon="-1.59679">
        <ele>79</ele>
        <time>2016-07-14T09:58:35.000Z</time>
      </trkpt>
      <trkpt lat="47.45454" lon="-1.59676">
        <ele>81</ele>
        <time>2016-07-14T09:58:42.000Z</time>
      </trkpt>
      <trkpt lat="47.45462" lon="-1.59668">
        <ele>79</ele>
        <time>2016-07-14T09:58:49.000Z</time>
      </trkpt>
      <trkpt lat="47.4547" lon="-1.59663">
        <ele>80</ele>
        <time>2016-07-14T09:58:59.000Z</time>
      </trkpt>
      <trkpt lat="47.45478" lon="-1.59657">
        <ele>80</ele>
        <time>2016-07-14T09:59:17.000Z</time>
      </trkpt>
      <trkpt lat="47.45488" lon="-1.59651">
        <ele>76</ele>
        <time>2016-07-14T09:59:35.000Z</time>
      </trkpt>
      <trkpt lat="47.45497" lon="-1.59643">
        <ele>77</ele>
        <time>2016-07-14T09:59:48.000Z</time>
      </trkpt>
      <trkpt lat="47.45506" lon="-1.59638">
        <ele>80</ele>
        <time>2016-07-14T09:59:57.000Z</time>
      </trkpt>
      <trkpt lat="47.45514" lon="-1.5963">
        <ele>80</ele>
        <time>2016-07-14T10:00:05.000Z</time>
      </trkpt>
      <trkpt lat="47.45522" lon="-1.59623">
        <ele>80</ele>
        <time>2016-07-14T10:00:16.000Z</time>
      </trkpt>
      <trkpt lat="47.4553" lon="-1.59615">
        <ele>81</ele>
        <time>2016-07-14T10:00:26.000Z</time>
      </trkpt>
      <trkpt lat="47.45538" lon="-1.59609">
        <ele>77</ele>
        <time>2016-07-14T10:00:40.000Z</time>
      </trkpt>
      <trkpt lat="47.45548" lon="-1.59603">
        <ele>82</ele>
        <time>2016-07-14T10:00:59.000Z</time>
      </trkpt>
      <trkpt lat="47.45556" lon="-1.59597">
        <ele>80</ele>
        <time>2016-07-14T10:01:09.000Z</time>
      </trkpt>
      <trkpt lat="47.45565" lon="-1.5959">
        <ele>78</ele>
        <time>2016-07-14T10:01:16.000Z</time>
      </trkpt>
      <trkpt lat="47.45573" lon="-1.59583">
        <ele>77</ele>
        <time>2016-07-14T10:01:24.000Z</time>
      </trkpt>
      <trkpt lat="47.45582" lon="-1.5958">
        <ele>78</ele>
        <time>2016-07-14T10:01:32.000Z</time>
      </trkpt>
      <trkpt lat="47.45591" lon="-1.59572">
        <ele>78</ele>
        <time>2016-07-14T10:01:40.000Z</time>
      </trkpt>
      <trkpt lat="47.45598" lon="-1.59563">
        <ele>77</ele>
        <time>2016-07-14T10:01:50.000Z</time>
      </trkpt>
      <trkpt lat="47.45607" lon="-1.59556">
        <ele>75</ele>
        <time>2016-07-14T10:02:04.000Z</time>
      </trkpt>
      <trkpt lat="47.45617" lon="-1.59551">
        <ele>76</ele>
        <time>2016-07-14T10:02:17.000Z</time>
      </trkpt>
      <trkpt lat="47.45626" lon="-1.59547">
        <ele>79</ele>
        <time>2016-07-14T10:02:27.000Z</time>
      </trkpt>
      <trkpt lat="47.45635" lon="-1.59541">
        <ele>78</ele>
        <time>2016-07-14T10:02:36.000Z</time>
      </trkpt>
      <trkpt lat="47.45643" lon="-1.59537">
        <ele>72</ele>
        <time>2016-07-14T10:02:45.000Z</time>
      </trkpt>
      <trkpt lat="47.45652" lon="-1.59532">
        <ele>76</ele>
        <time>2016-07-14T10:02:54.000Z</time>
      </trkpt>
      <trkpt lat="47.45661" lon="-1.59525">
        <ele>73</ele>
        <time>2016-07-14T10:03:01.000Z</time>
      </trkpt>
      <trkpt lat="47.45669" lon="-1.59518">
        <ele>76</ele>
        <time>2016-07-14T10:03:08.000Z</time>
      </trkpt>
      <trkpt lat="47.45678" lon="-1.59513">
        <ele>75</ele>
        <time>2016-07-14T10:03:16.000Z</time>
      </trkpt>
      <trkpt lat="47.45686" lon="-1.59505">
        <ele>75</ele>
        <time>2016-07-14T10:03:25.000Z</time>
      </trkpt>
      <trkpt lat="47.45696" lon="-1.59501">
        <ele>73</ele>
        <time>2016-07-14T10:03:32.000Z</time>
      </trkpt>
      <trkpt lat="47.45704" lon="-1.59493">
        <ele>72</ele>
        <time>2016-07-14T10:03:39.000Z</time>
      </trkpt>
      <trkpt lat="47.45712" lon="-1.59486">
        <ele>74</ele>
        <time>2016-07-14T10:03:47.000Z</time>
      </trkpt>
      <trkpt lat="47.45721" lon="-1.5948">
        <ele>74</ele>
        <time>2016-07-14T10:03:54.000Z</time>
      </trkpt>
      <trkpt lat="47.4573" lon="-1.59475">
        <ele>76</ele>
        <time>2016-07-14T10:04:07.000Z</time>
      </trkpt>
      <trkpt lat="47.45738" lon="-1.59469">
        <ele>74</ele>
        <time>2016-07-14T10:04:18.000Z</time>
      </trkpt>
      <trkpt lat="47.45748" lon="-1.59463">
        <ele>74</ele>
        <time>2016-07-14T10:04:26.000Z</time>
      </trkpt>
      <trkpt lat="47.45757" lon="-1.59458">
        <ele>73</ele>
        <time>2016-07-14T10:04:36.000Z</time>
      </trkpt>
      <trkpt lat="47.45765" lon="-1.59451">
        <ele>79</ele>
        <time>2016-07-14T10:04:46.000Z</time>
      </trkpt>
      <trkpt lat="47.45773" lon="-1.59445">
        <ele>79</ele>
        <time>2016-07-14T10:04:55.000Z</time>
      </trkpt>
      <trkpt lat="47.45782" lon="-1.59437">
        <ele>82</ele>
        <time>2016-07-14T10:05:09.000Z</time>
      </trkpt>
      <trkpt lat="47.45791" lon="-1.59431">
        <ele>79</ele>
        <time>2016-07-14T10:05:19.000Z</time>
      </trkpt>
      <trkpt lat="47.458" lon="-1.59426">
        <ele>77</ele>
        <time>2016-07-14T10:05:26.000Z</time>
      </trkpt>
      <trkpt lat="47.45808" lon="-1.5942">
        <ele>80</ele>
        <time>2016-07-14T10:05:35.000Z</time>
      </trkpt>
      <trkpt lat="47.45818" lon="-1.59416">
        <ele>80</ele>
        <time>2016-07-14T10:05:45.000Z</time>
      </trkpt>
      <trkpt lat="47.45826" lon="-1.59409">
        <ele>81</ele>
        <time>2016-07-14T10:05:53.000Z</time>
      </trkpt>
      <trkpt lat="47.45835" lon="-1.59404">
        <ele>81</ele>
        <time>2016-07-14T10:06:04.000Z</time>
      </trkpt>
      <trkpt lat="47.45844" lon="-1.59399">
        <ele>81</ele>
        <time>2016-07-14T10:06:22.000Z</time>
      </trkpt>
      <trkpt lat="47.45851" lon="-1.59391">
        <ele>77</ele>
        <time>2016-07-14T10:06:30.000Z</time>
      </trkpt>
      <trkpt lat="47.45859" lon="-1.59384">
        <ele>74</ele>
        <time>2016-07-14T10:06:40.000Z</time>
      </trkpt>
      <trkpt lat="47.45869" lon="-1.59379">
        <ele>72</ele>
        <time>2016-07-14T10:06:48.000Z</time>
      </trkpt>
      <trkpt lat="47.45877" lon="-1.59373">
        <ele>73</ele>
        <time>2016-07-14T10:06:56.000Z</time>
      </trkpt>
      <trkpt lat="47.45885" lon="-1.59367">
        <ele>75</ele>
        <time>2016-07-14T10:07:03.000Z</time>
      </trkpt>
      <trkpt lat="47.45893" lon="-1.5936">
        <ele>78</ele>
        <time>2016-07-14T10:07:12.000Z</time>
      </trkpt>
      <trkpt lat="47.45902" lon="-1.59352">
        <ele>81</ele>
        <time>2016-07-14T10:07:23.000Z</time>
      </trkpt>
      <trkpt lat="47.4591" lon="-1.59345">
        <ele>84</ele>
        <time>2016-07-14T10:07:38.000Z</time>
      </trkpt>
      <trkpt lat="47.45919" lon="-1.5934">
        <ele>84</ele>
        <time>2016-07-14T10:07:45.000Z</time>
      </trkpt>
      <trkpt lat="47.45927" lon="-1.59334">
        <ele>79</ele>
        <time>2016-07-14T10:08:00.000Z</time>
      </trkpt>
      <trkpt lat="47.45936" lon="-1.59329">
        <ele>77</ele>
        <time>2016-07-14T10:08:06.000Z</time>
      </trkpt>
      <trkpt lat="47.45946" lon="-1.59323">
        <ele>76</ele>
        <time>2016-07-14T10:08:13.000Z</time>
      </trkpt>
      <trkpt lat="47.45955" lon="-1.59316">
        <ele>78</ele>
        <time>2016-07-14T10:08:23.000Z</time>
      </trkpt>
      <trkpt lat="47.45963" lon="-1.59309">
        <ele>76</ele>
        <time>2016-07-14T10:08:31.000Z</time>
      </trkpt>
      <trkpt lat="47.45972" lon="-1.59304">
        <ele>76</ele>
        <time>2016-07-14T10:08:38.000Z</time>
      </trkpt>
      <trkpt lat="47.4598" lon="-1.59296">
        <ele>78</ele>
        <time>2016-07-14T10:08:49.000Z</time>
      </trkpt>
      <trkpt lat="47.45987" lon="-1.59289">
        <ele>86</ele>
        <time>2016-07-14T10:08:59.000Z</time>
      </trkpt>
      <trkpt lat="47.45996" lon="-1.59282">
        <ele>87</ele>
        <time>2016-07-14T10:09:08.000Z</time>
      </trkpt>
      <trkpt lat="47.46005" lon="-1.59279">
        <ele>84</ele>
        <time>2016-07-14T10:09:14.000Z</time>
      </trkpt>
      <trkpt lat="47.46016" lon="-1.59276">
        <ele>84</ele>
        <time>2016-07-14T10:09:21.000Z</time>
      </trkpt>
      <trkpt lat="47.46024" lon="-1.59267">
        <ele>81</ele>
        <time>2016-07-14T10:09:31.000Z</time>
      </trkpt>
      <trkpt lat="47.46032" lon="-1.59258">
        <ele>80</ele>
        <time>2016-07-14T10:09:39.000Z</time>
      </trkpt>
      <trkpt lat="47.46041" lon="-1.59254">
        <ele>79</ele>
        <time>2016-07-14T10:09:45.000Z</time>
      </trkpt>
      <trkpt lat="47.4605" lon="-1.59247">
        <ele>81</ele>
        <time>2016-07-14T10:09:53.000Z</time>
      </trkpt>
      <trkpt lat="47.46059" lon="-1.59241">
        <ele>80</ele>
        <time>2016-07-14T10:10:01.000Z</time>
      </trkpt>
      <trkpt lat="47.46067" lon="-1.59233">
        <ele>81</ele>
        <time>2016-07-14T10:10:09.000Z</time>
      </trkpt>
      <trkpt lat="47.46076" lon="-1.59228">
        <ele>82</ele>
        <time>2016-07-14T10:10:17.000Z</time>
      </trkpt>
      <trkpt lat="47.46085" lon="-1.59229">
        <ele>79</ele>
        <time>2016-07-14T10:10:28.000Z</time>
      </trkpt>
      <trkpt lat="47.46091" lon="-1.5924">
        <ele>80</ele>
        <time>2016-07-14T10:10:38.000Z</time>
      </trkpt>
      <trkpt lat="47.46092" lon="-1.59255">
        <ele>81</ele>
        <time>2016-07-14T10:10:56.000Z</time>
      </trkpt>
      <trkpt lat="47.46094" lon="-1.59268">
        <ele>84</ele>
        <time>2016-07-14T10:11:02.000Z</time>
      </trkpt>
      <trkpt lat="47.46096" lon="-1.59281">
        <ele>85</ele>
        <time>2016-07-14T10:11:07.000Z</time>
      </trkpt>
      <trkpt lat="47.46095" lon="-1.59294">
        <ele>82</ele>
        <time>2016-07-14T10:11:28.000Z</time>
      </trkpt>
      <trkpt lat="47.46096" lon="-1.59309">
        <ele>84</ele>
        <time>2016-07-14T10:11:36.000Z</time>
      </trkpt>
      <trkpt lat="47.46098" lon="-1.59323">
        <ele>83</ele>
        <time>2016-07-14T10:11:44.000Z</time>
      </trkpt>
      <trkpt lat="47.461" lon="-1.59336">
        <ele>83</ele>
        <time>2016-07-14T10:11:49.000Z</time>
      </trkpt>
      <trkpt lat="47.46102" lon="-1.5935">
        <ele>82</ele>
        <time>2016-07-14T10:11:58.000Z</time>
      </trkpt>
      <trkpt lat="47.46104" lon="-1.59363">
        <ele>82</ele>
        <time>2016-07-14T10:12:02.000Z</time>
      </trkpt>
      <trkpt lat="47.46106" lon="-1.59378">
        <ele>82</ele>
        <time>2016-07-14T10:12:10.000Z</time>
      </trkpt>
      <trkpt lat="47.46109" lon="-1.59391">
        <ele>78</ele>
        <time>2016-07-14T10:12:20.000Z</time>
      </trkpt>
      <trkpt lat="47.4611" lon="-1.59405">
        <ele>79</ele>
        <time>2016-07-14T10:12:30.000Z</time>
      </trkpt>
      <trkpt lat="47.4611" lon="-1.59419">
        <ele>76</ele>
        <time>2016-07-14T10:12:35.000Z</time>
      </trkpt>
      <trkpt lat="47.46115" lon="-1.5943">
        <ele>79</ele>
        <time>2016-07-14T10:12:40.000Z</time>
      </trkpt>
      <trkpt lat="47.46114" lon="-1.59445">
        <ele>76</ele>
        <time>2016-07-14T10:12:48.000Z</time>
      </trkpt>
      <trkpt lat="47.46116" lon="-1.59458">
        <ele>80</ele>
        <time>2016-07-14T10:12:55.000Z</time>
      </trkpt>
      <trkpt lat="47.46117" lon="-1.59472">
        <ele>85</ele>
        <time>2016-07-14T10:13:02.000Z</time>
      </trkpt>
      <trkpt lat="47.46119" lon="-1.59485">
        <ele>86</ele>
        <time>2016-07-14T10:13:07.000Z</time>
      </trkpt>
      <trkpt lat="47.46123" lon="-1.595">
        <ele>84</ele>
        <time>2016-07-14T10:13:14.000Z</time>
      </trkpt>
      <trkpt lat="47.46122" lon="-1.59515">
        <ele>85</ele>
        <time>2016-07-14T10:13:23.000Z</time>
      </trkpt>
      <trkpt lat="47.46124" lon="-1.59529">
        <ele>82</ele>
        <time>2016-07-14T10:13:33.000Z</time>
      </trkpt>
      <trkpt lat="47.46127" lon="-1.59544">
        <ele>81</ele>
        <time>2016-07-14T10:13:39.000Z</time>
      </trkpt>
      <trkpt lat="47.46125" lon="-1.59559">
        <ele>74</ele>
        <time>2016-07-14T10:13:48.000Z</time>
      </trkpt>
      <trkpt lat="47.46127" lon="-1.59573">
        <ele>72</ele>
        <time>2016-07-14T10:13:53.000Z</time>
      </trkpt>
      <trkpt lat="47.46131" lon="-1.59588">
        <ele>70</ele>
        <time>2016-07-14T10:14:05.000Z</time>
      </trkpt>
      <trkpt lat="47.46131" lon="-1.59601">
        <ele>72</ele>
        <time>2016-07-14T10:14:26.000Z</time>
      </trkpt>
      <trkpt lat="47.46133" lon="-1.59615">
        <ele>73</ele>
        <time>2016-07-14T10:14:32.000Z</time>
      </trkpt>
      <trkpt lat="47.46133" lon="-1.59629">
        <ele>69</ele>
        <time>2016-07-14T10:14:42.000Z</time>
      </trkpt>
      <trkpt lat="47.46135" lon="-1.59643">
        <ele>72</ele>
        <time>2016-07-14T10:14:48.000Z</time>
      </trkpt>
      <trkpt lat="47.46137" lon="-1.59657">
        <ele>76</ele>
        <time>2016-07-14T10:14:54.000Z</time>
      </trkpt>
      <trkpt lat="47.46141" lon="-1.59671">
        <ele>77</ele>
        <time>2016-07-14T10:14:59.000Z</time>
      </trkpt>
      <trkpt lat="47.46143" lon="-1.59684">
        <ele>73</ele>
        <time>2016-07-14T10:15:07.000Z</time>
      </trkpt>
      <trkpt lat="47.46149" lon="-1.59695">
        <ele>72</ele>
        <time>2016-07-14T10:15:16.000Z</time>
      </trkpt>
      <trkpt lat="47.46156" lon="-1.59686">
        <ele>73</ele>
        <time>2016-07-14T10:15:26.000Z</time>
      </trkpt>
      <trkpt lat="47.46164" lon="-1.59677">
        <ele>73</ele>
        <time>2016-07-14T10:15:33.000Z</time>
      </trkpt>
      <trkpt lat="47.46172" lon="-1.59668">
        <ele>75</ele>
        <time>2016-07-14T10:15:40.000Z</time>
      </trkpt>
      <trkpt lat="47.46179" lon="-1.5966">
        <ele>75</ele>
        <time>2016-07-14T10:15:47.000Z</time>
      </trkpt>
      <trkpt lat="47.46187" lon="-1.59653">
        <ele>75</ele>
        <time>2016-07-14T10:15:55.000Z</time>
      </trkpt>
      <trkpt lat="47.46196" lon="-1.59648">
        <ele>77</ele>
        <time>2016-07-14T10:16:02.000Z</time>
      </trkpt>
      <trkpt lat="47.46206" lon="-1.59647">
        <ele>77</ele>
        <time>2016-07-14T10:16:11.000Z</time>
      </trkpt>
      <trkpt lat="47.46215" lon="-1.59647">
        <ele>78</ele>
        <time>2016-07-14T10:16:21.000Z</time>
      </trkpt>
      <trkpt lat="47.46225" lon="-1.59641">
        <ele>72</ele>
        <time>2016-07-14T10:17:09.000Z</time>
      </trkpt>
      <trkpt lat="47.46235" lon="-1.5964">
        <ele>73</ele>
        <time>2016-07-14T10:17:17.000Z</time>
      </trkpt>
      <trkpt lat="47.46244" lon="-1.59638">
        <ele>72</ele>
        <time>2016-07-14T10:17:26.000Z</time>
      </trkpt>
      <trkpt lat="47.46255" lon="-1.59637">
        <ele>72</ele>
        <time>2016-07-14T10:17:34.000Z</time>
      </trkpt>
      <trkpt lat="47.46263" lon="-1.59629">
        <ele>72</ele>
        <time>2016-07-14T10:17:44.000Z</time>
      </trkpt>
      <trkpt lat="47.46273" lon="-1.59624">
        <ele>76</ele>
        <time>2016-07-14T10:17:52.000Z</time>
      </trkpt>
      <trkpt lat="47.46283" lon="-1.59628">
        <ele>76</ele>
        <time>2016-07-14T10:18:01.000Z</time>
      </trkpt>
      <trkpt lat="47.46292" lon="-1.59635">
        <ele>75</ele>
        <time>2016-07-14T10:18:06.000Z</time>
      </trkpt>
      <trkpt lat="47.46302" lon="-1.59638">
        <ele>76</ele>
        <time>2016-07-14T10:18:13.000Z</time>
      </trkpt>
      <trkpt lat="47.46312" lon="-1.59641">
        <ele>80</ele>
        <time>2016-07-14T10:18:32.000Z</time>
      </trkpt>
      <trkpt lat="47.46322" lon="-1.5964">
        <ele>74</ele>
        <time>2016-07-14T10:18:39.000Z</time>
      </trkpt>
      <trkpt lat="47.46331" lon="-1.59641">
        <ele>73</ele>
        <time>2016-07-14T10:18:46.000Z</time>
      </trkpt>
      <trkpt lat="47.46341" lon="-1.5964">
        <ele>75</ele>
        <time>2016-07-14T10:18:54.000Z</time>
      </trkpt>
      <trkpt lat="47.4635" lon="-1.59638">
        <ele>70</ele>
        <time>2016-07-14T10:19:10.000Z</time>
      </trkpt>
      <trkpt lat="47.4636" lon="-1.59638">
        <ele>69</ele>
        <time>2016-07-14T10:19:17.000Z</time>
      </trkpt>
      <trkpt lat="47.46369" lon="-1.59636">
        <ele>73</ele>
        <time>2016-07-14T10:19:25.000Z</time>
      </trkpt>
      <trkpt lat="47.4638" lon="-1.59634">
        <ele>71</ele>
        <time>2016-07-14T10:19:34.000Z</time>
      </trkpt>
      <trkpt lat="47.46388" lon="-1.59631">
        <ele>75</ele>
        <time>2016-07-14T10:19:42.000Z</time>
      </trkpt>
      <trkpt lat="47.46398" lon="-1.59632">
        <ele>73</ele>
        <time>2016-07-14T10:19:48.000Z</time>
      </trkpt>
      <trkpt lat="47.46407" lon="-1.59627">
        <ele>74</ele>
        <time>2016-07-14T10:19:59.000Z</time>
      </trkpt>
      <trkpt lat="47.46416" lon="-1.59621">
        <ele>73</ele>
        <time>2016-07-14T10:20:06.000Z</time>
      </trkpt>
      <trkpt lat="47.46421" lon="-1.5961">
        <ele>70</ele>
        <time>2016-07-14T10:20:15.000Z</time>
      </trkpt>
      <trkpt lat="47.46425" lon="-1.59595">
        <ele>70</ele>
        <time>2016-07-14T10:20:22.000Z</time>
      </trkpt>
      <trkpt lat="47.46425" lon="-1.59582">
        <ele>72</ele>
        <time>2016-07-14T10:20:30.000Z</time>
      </trkpt>
      <trkpt lat="47.46429" lon="-1.5957">
        <ele>72</ele>
        <time>2016-07-14T10:21:15.000Z</time>
      </trkpt>
      <trkpt lat="47.46427" lon="-1.59557">
        <ele>71</ele>
        <time>2016-07-14T10:24:42.000Z</time>
      </trkpt>
      <trkpt lat="47.46429" lon="-1.59543">
        <ele>72</ele>
        <time>2016-07-14T10:25:01.000Z</time>
      </trkpt>
      <trkpt lat="47.46434" lon="-1.5953">
        <ele>72</ele>
        <time>2016-07-14T10:25:09.000Z</time>
      </trkpt>
      <trkpt lat="47.46433" lon="-1.59516">
        <ele>76</ele>
        <time>2016-07-14T10:25:18.000Z</time>
      </trkpt>
      <trkpt lat="47.46438" lon="-1.59503">
        <ele>70</ele>
        <time>2016-07-14T10:25:38.000Z</time>
      </trkpt>
      <trkpt lat="47.46439" lon="-1.59488">
        <ele>68</ele>
        <time>2016-07-14T10:25:44.000Z</time>
      </trkpt>
      <trkpt lat="47.46438" lon="-1.59475">
        <ele>71</ele>
        <time>2016-07-14T10:25:57.000Z</time>
      </trkpt>
      <trkpt lat="47.46442" lon="-1.59462">
        <ele>71</ele>
        <time>2016-07-14T10:26:03.000Z</time>
      </trkpt>
      <trkpt lat="47.46444" lon="-1.59449">
        <ele>66</ele>
        <time>2016-07-14T10:26:12.000Z</time>
      </trkpt>
      <trkpt lat="47.46444" lon="-1.59435">
        <ele>69</ele>
        <time>2016-07-14T10:26:20.000Z</time>
      </trkpt>
      <trkpt lat="47.46444" lon="-1.5942">
        <ele>71</ele>
        <time>2016-07-14T10:26:26.000Z</time>
      </trkpt>
      <trkpt lat="47.46446" lon="-1.59406">
        <ele>79</ele>
        <time>2016-07-14T10:26:35.000Z</time>
      </trkpt>
      <trkpt lat="47.46449" lon="-1.59393">
        <ele>78</ele>
        <time>2016-07-14T10:26:39.000Z</time>
      </trkpt>
      <trkpt lat="47.46448" lon="-1.59379">
        <ele>82</ele>
        <time>2016-07-14T10:26:53.000Z</time>
      </trkpt>
      <trkpt lat="47.4645" lon="-1.59366">
        <ele>81</ele>
        <time>2016-07-14T10:27:01.000Z</time>
      </trkpt>
      <trkpt lat="47.46451" lon="-1.59351">
        <ele>83</ele>
        <time>2016-07-14T10:27:10.000Z</time>
      </trkpt>
      <trkpt lat="47.46453" lon="-1.59338">
        <ele>81</ele>
        <time>2016-07-14T10:27:18.000Z</time>
      </trkpt>
      <trkpt lat="47.46455" lon="-1.59325">
        <ele>82</ele>
        <time>2016-07-14T10:27:24.000Z</time>
      </trkpt>
      <trkpt lat="47.46458" lon="-1.59312">
        <ele>81</ele>
        <time>2016-07-14T10:27:32.000Z</time>
      </trkpt>
      <trkpt lat="47.46461" lon="-1.59296">
        <ele>79</ele>
        <time>2016-07-14T10:27:42.000Z</time>
      </trkpt>
      <trkpt lat="47.46462" lon="-1.59281">
        <ele>78</ele>
        <time>2016-07-14T10:27:50.000Z</time>
      </trkpt>
      <trkpt lat="47.46462" lon="-1.59266">
        <ele>81</ele>
        <time>2016-07-14T10:27:58.000Z</time>
      </trkpt>
      <trkpt lat="47.46464" lon="-1.59252">
        <ele>79</ele>
        <time>2016-07-14T10:28:04.000Z</time>
      </trkpt>
      <trkpt lat="47.46463" lon="-1.59237">
        <ele>80</ele>
        <time>2016-07-14T10:28:13.000Z</time>
      </trkpt>
      <trkpt lat="47.46466" lon="-1.59222">
        <ele>75</ele>
        <time>2016-07-14T10:28:22.000Z</time>
      </trkpt>
      <trkpt lat="47.46468" lon="-1.59208">
        <ele>82</ele>
        <time>2016-07-14T10:28:30.000Z</time>
      </trkpt>
      <trkpt lat="47.4647" lon="-1.59195">
        <ele>83</ele>
        <time>2016-07-14T10:28:35.000Z</time>
      </trkpt>
      <trkpt lat="47.46474" lon="-1.59181">
        <ele>79</ele>
        <time>2016-07-14T10:28:44.000Z</time>
      </trkpt>
      <trkpt lat="47.46478" lon="-1.59167">
        <ele>76</ele>
        <time>2016-07-14T10:28:52.000Z</time>
      </trkpt>
      <trkpt lat="47.46477" lon="-1.59154">
        <ele>72</ele>
        <time>2016-07-14T10:28:58.000Z</time>
      </trkpt>
      <trkpt lat="47.46477" lon="-1.5914">
        <ele>75</ele>
        <time>2016-07-14T10:29:08.000Z</time>
      </trkpt>
      <trkpt lat="47.46479" lon="-1.59126">
        <ele>72</ele>
        <time>2016-07-14T10:29:18.000Z</time>
      </trkpt>
      <trkpt lat="47.46482" lon="-1.59112">
        <ele>75</ele>
        <time>2016-07-14T10:29:27.000Z</time>
      </trkpt>
      <trkpt lat="47.46484" lon="-1.59099">
        <ele>77</ele>
        <time>2016-07-14T10:29:31.000Z</time>
      </trkpt>
      <trkpt lat="47.46483" lon="-1.59083">
        <ele>80</ele>
        <time>2016-07-14T10:29:39.000Z</time>
      </trkpt>
      <trkpt lat="47.46483" lon="-1.59069">
        <ele>80</ele>
        <time>2016-07-14T10:29:48.000Z</time>
      </trkpt>
      <trkpt lat="47.46492" lon="-1.59061">
        <ele>78</ele>
        <time>2016-07-14T10:30:21.000Z</time>
      </trkpt>
      <trkpt lat="47.465" lon="-1.59056">
        <ele>76</ele>
        <time>2016-07-14T10:30:40.000Z</time>
      </trkpt>
      <trkpt lat="47.4651" lon="-1.59055">
        <ele>74</ele>
        <time>2016-07-14T10:30:48.000Z</time>
      </trkpt>
      <trkpt lat="47.46519" lon="-1.59051">
        <ele>74</ele>
        <time>2016-07-14T10:30:56.000Z</time>
      </trkpt>
      <trkpt lat="47.46527" lon="-1.59045">
        <ele>74</ele>
        <time>2016-07-14T10:31:01.000Z</time>
      </trkpt>
      <trkpt lat="47.46537" lon="-1.5904">
        <ele>75</ele>
        <time>2016-07-14T10:31:10.000Z</time>
      </trkpt>
      <trkpt lat="47.46546" lon="-1.59039">
        <ele>75</ele>
        <time>2016-07-14T10:31:18.000Z</time>
      </trkpt>
      <trkpt lat="47.46555" lon="-1.59035">
        <ele>76</ele>
        <time>2016-07-14T10:31:25.000Z</time>
      </trkpt>
      <trkpt lat="47.46565" lon="-1.59032">
        <ele>75</ele>
        <time>2016-07-14T10:31:33.000Z</time>
      </trkpt>
      <trkpt lat="47.46575" lon="-1.59028">
        <ele>76</ele>
        <time>2016-07-14T10:31:41.000Z</time>
      </trkpt>
      <trkpt lat="47.46584" lon="-1.59025">
        <ele>73</ele>
        <time>2016-07-14T10:31:49.000Z</time>
      </trkpt>
      <trkpt lat="47.46594" lon="-1.59021">
        <ele>71</ele>
        <time>2016-07-14T10:31:55.000Z</time>
      </trkpt>
      <trkpt lat="47.46603" lon="-1.5902">
        <ele>71</ele>
        <time>2016-07-14T10:32:03.000Z</time>
      </trkpt>
      <trkpt lat="47.46612" lon="-1.59013">
        <ele>70</ele>
        <time>2016-07-14T10:32:10.000Z</time>
      </trkpt>
      <trkpt lat="47.46621" lon="-1.5901">
        <ele>69</ele>
        <time>2016-07-14T10:32:16.000Z</time>
      </trkpt>
      <trkpt lat="47.46631" lon="-1.59006">
        <ele>71</ele>
        <time>2016-07-14T10:32:26.000Z</time>
      </trkpt>
      <trkpt lat="47.46641" lon="-1.59002">
        <ele>72</ele>
        <time>2016-07-14T10:32:35.000Z</time>
      </trkpt>
      <trkpt lat="47.4665" lon="-1.58998">
        <ele>77</ele>
        <time>2016-07-14T10:32:44.000Z</time>
      </trkpt>
      <trkpt lat="47.4666" lon="-1.58991">
        <ele>75</ele>
        <time>2016-07-14T10:32:52.000Z</time>
      </trkpt>
      <trkpt lat="47.46664" lon="-1.5898">
        <ele>77</ele>
        <time>2016-07-14T10:33:02.000Z</time>
      </trkpt>
      <trkpt lat="47.46664" lon="-1.58966">
        <ele>77</ele>
        <time>2016-07-14T10:33:16.000Z</time>
      </trkpt>
      <trkpt lat="47.4666" lon="-1.58952">
        <ele>76</ele>
        <time>2016-07-14T10:33:25.000Z</time>
      </trkpt>
      <trkpt lat="47.46661" lon="-1.58938">
        <ele>76</ele>
        <time>2016-07-14T10:33:30.000Z</time>
      </trkpt>
      <trkpt lat="47.4666" lon="-1.58925">
        <ele>77</ele>
        <time>2016-07-14T10:33:37.000Z</time>
      </trkpt>
      <trkpt lat="47.46659" lon="-1.58911">
        <ele>75</ele>
        <time>2016-07-14T10:33:46.000Z</time>
      </trkpt>
      <trkpt lat="47.46658" lon="-1.58896">
        <ele>75</ele>
        <time>2016-07-14T10:33:53.000Z</time>
      </trkpt>
      <trkpt lat="47.46658" lon="-1.58881">
        <ele>76</ele>
        <time>2016-07-14T10:34:02.000Z</time>
      </trkpt>
      <trkpt lat="47.46655" lon="-1.58865">
        <ele>82</ele>
        <time>2016-07-14T10:34:13.000Z</time>
      </trkpt>
      <trkpt lat="47.46653" lon="-1.58851">
        <ele>83</ele>
        <time>2016-07-14T10:34:20.000Z</time>
      </trkpt>
      <trkpt lat="47.46656" lon="-1.58837">
        <ele>78</ele>
        <time>2016-07-14T10:34:28.000Z</time>
      </trkpt>
      <trkpt lat="47.46654" lon="-1.58822">
        <ele>81</ele>
        <time>2016-07-14T10:34:37.000Z</time>
      </trkpt>
      <trkpt lat="47.46652" lon="-1.58803">
        <ele>83</ele>
        <time>2016-07-14T10:34:45.000Z</time>
      </trkpt>
      <trkpt lat="47.46646" lon="-1.5879">
        <ele>87</ele>
        <time>2016-07-14T10:34:50.000Z</time>
      </trkpt>
      <trkpt lat="47.46646" lon="-1.58776">
        <ele>82</ele>
        <time>2016-07-14T10:35:09.000Z</time>
      </trkpt>
      <trkpt lat="47.46645" lon="-1.58762">
        <ele>82</ele>
        <time>2016-07-14T10:35:17.000Z</time>
      </trkpt>
      <trkpt lat="47.46644" lon="-1.58747">
        <ele>81</ele>
        <time>2016-07-14T10:35:26.000Z</time>
      </trkpt>
      <trkpt lat="47.46643" lon="-1.58733">
        <ele>83</ele>
        <time>2016-07-14T10:35:33.000Z</time>
      </trkpt>
      <trkpt lat="47.46641" lon="-1.58718">
        <ele>84</ele>
        <time>2016-07-14T10:35:41.000Z</time>
      </trkpt>
      <trkpt lat="47.46637" lon="-1.58704">
        <ele>87</ele>
        <time>2016-07-14T10:35:49.000Z</time>
      </trkpt>
      <trkpt lat="47.46639" lon="-1.58689">
        <ele>84</ele>
        <time>2016-07-14T10:35:58.000Z</time>
      </trkpt>
      <trkpt lat="47.46636" lon="-1.58675">
        <ele>83</ele>
        <time>2016-07-14T10:36:06.000Z</time>
      </trkpt>
      <trkpt lat="47.46634" lon="-1.58658">
        <ele>83</ele>
        <time>2016-07-14T10:36:16.000Z</time>
      </trkpt>
      <trkpt lat="47.46634" lon="-1.58642">
        <ele>84</ele>
        <time>2016-07-14T10:36:27.000Z</time>
      </trkpt>
      <trkpt lat="47.46635" lon="-1.58626">
        <ele>81</ele>
        <time>2016-07-14T10:36:36.000Z</time>
      </trkpt>
      <trkpt lat="47.46635" lon="-1.58611">
        <ele>83</ele>
        <time>2016-07-14T10:36:41.000Z</time>
      </trkpt>
      <trkpt lat="47.46632" lon="-1.58598">
        <ele>82</ele>
        <time>2016-07-14T10:36:50.000Z</time>
      </trkpt>
      <trkpt lat="47.46632" lon="-1.58584">
        <ele>79</ele>
        <time>2016-07-14T10:37:01.000Z</time>
      </trkpt>
      <trkpt lat="47.46632" lon="-1.58571">
        <ele>80</ele>
        <time>2016-07-14T10:37:15.000Z</time>
      </trkpt>
      <trkpt lat="47.46632" lon="-1.58556">
        <ele>79</ele>
        <time>2016-07-14T10:37:21.000Z</time>
      </trkpt>
      <trkpt lat="47.46627" lon="-1.58543">
        <ele>82</ele>
        <time>2016-07-14T10:37:29.000Z</time>
      </trkpt>
      <trkpt lat="47.46624" lon="-1.58529">
        <ele>82</ele>
        <time>2016-07-14T10:37:35.000Z</time>
      </trkpt>
      <trkpt lat="47.46627" lon="-1.58515">
        <ele>81</ele>
        <time>2016-07-14T10:37:43.000Z</time>
      </trkpt>
      <trkpt lat="47.46626" lon="-1.58501">
        <ele>84</ele>
        <time>2016-07-14T10:37:57.000Z</time>
      </trkpt>
      <trkpt lat="47.46625" lon="-1.58486">
        <ele>80</ele>
        <time>2016-07-14T10:38:13.000Z</time>
      </trkpt>
      <trkpt lat="47.46627" lon="-1.58472">
        <ele>86</ele>
        <time>2016-07-14T10:38:21.000Z</time>
      </trkpt>
      <trkpt lat="47.46631" lon="-1.5846">
        <ele>82</ele>
        <time>2016-07-14T10:38:29.000Z</time>
      </trkpt>
      <trkpt lat="47.46635" lon="-1.58448">
        <ele>81</ele>
        <time>2016-07-14T10:38:33.000Z</time>
      </trkpt>
      <trkpt lat="47.46639" lon="-1.58436">
        <ele>79</ele>
        <time>2016-07-14T10:38:43.000Z</time>
      </trkpt>
      <trkpt lat="47.4664" lon="-1.58422">
        <ele>80</ele>
        <time>2016-07-14T10:38:50.000Z</time>
      </trkpt>
      <trkpt lat="47.46648" lon="-1.58414">
        <ele>80</ele>
        <time>2016-07-14T10:38:56.000Z</time>
      </trkpt>
      <trkpt lat="47.46655" lon="-1.58401">
        <ele>77</ele>
        <time>2016-07-14T10:39:03.000Z</time>
      </trkpt>
      <trkpt lat="47.4666" lon="-1.58388">
        <ele>77</ele>
        <time>2016-07-14T10:39:10.000Z</time>
      </trkpt>
      <trkpt lat="47.46664" lon="-1.58376">
        <ele>79</ele>
        <time>2016-07-14T10:39:18.000Z</time>
      </trkpt>
      <trkpt lat="47.4667" lon="-1.58364">
        <ele>80</ele>
        <time>2016-07-14T10:39:29.000Z</time>
      </trkpt>
      <trkpt lat="47.46674" lon="-1.58349">
        <ele>81</ele>
        <time>2016-07-14T10:39:35.000Z</time>
      </trkpt>
      <trkpt lat="47.46677" lon="-1.58335">
        <ele>83</ele>
        <time>2016-07-14T10:39:41.000Z</time>
      </trkpt>
      <trkpt lat="47.4668" lon="-1.58322">
        <ele>85</ele>
        <time>2016-07-14T10:39:47.000Z</time>
      </trkpt>
      <trkpt lat="47.46684" lon="-1.58308">
        <ele>85</ele>
        <time>2016-07-14T10:39:54.000Z</time>
      </trkpt>
      <trkpt lat="47.46687" lon="-1.58294">
        <ele>84</ele>
        <time>2016-07-14T10:40:00.000Z</time>
      </trkpt>
      <trkpt lat="47.4669" lon="-1.58281">
        <ele>82</ele>
        <time>2016-07-14T10:40:08.000Z</time>
      </trkpt>
      <trkpt lat="47.46692" lon="-1.58266">
        <ele>84</ele>
        <time>2016-07-14T10:40:20.000Z</time>
      </trkpt>
      <trkpt lat="47.46693" lon="-1.58251">
        <ele>81</ele>
        <time>2016-07-14T10:40:29.000Z</time>
      </trkpt>
      <trkpt lat="47.46695" lon="-1.58237">
        <ele>80</ele>
        <time>2016-07-14T10:40:38.000Z</time>
      </trkpt>
      <trkpt lat="47.46692" lon="-1.58222">
        <ele>83</ele>
        <time>2016-07-14T10:40:43.000Z</time>
      </trkpt>
      <trkpt lat="47.46689" lon="-1.58209">
        <ele>83</ele>
        <time>2016-07-14T10:40:52.000Z</time>
      </trkpt>
      <trkpt lat="47.46683" lon="-1.58198">
        <ele>82</ele>
        <time>2016-07-14T10:41:02.000Z</time>
      </trkpt>
      <trkpt lat="47.46675" lon="-1.58193">
        <ele>84</ele>
        <time>2016-07-14T10:41:14.000Z</time>
      </trkpt>
      <trkpt lat="47.46678" lon="-1.58178">
        <ele>85</ele>
        <time>2016-07-14T10:41:39.000Z</time>
      </trkpt>
    </trkseg>
  </trk>
</gpx>